Churchill Falls Airport

Airport
ICAO code: 
CZUM
IATA Code: 
ZUM
Summary
ICAO Region: 
NAM
Territory: 
Location: 
Churchill Falls, Newfoundland and Labrador,
Serving: 
Churchill Falls
Elevation: 
1442 ft
Coordinates: 
Aerial View: 
53° 33' 45.508" N, 64° 6' 22.609" W
Metar
Observation
CZUM 240643Z AUTO 29008KT 6SM -SN SCT026 M23/M26 A2946 RMK SLP031
Station
Churchill Falls, Nfld.
Date/Time
2022-01-24 06:43:00
Wind direction
290°
Wind speed
08 kts
Lowest cloud amount
scattered clouds
Temperature
-23°C
Dew point
-26°C
Humidity
76%
Weather condition
light snow

Runways

Designator Length Width Surface Rops
13/31 1676 46 ASP No/No
Airport map: 
Aerial View: 

SKYbrary Partners:

Safety knowledge contributed by: